Time;durP1;ratioP1;P1;durP2;ratioP2;P2;SDS_P1;SDS_P2;PMS_P1;PMS_P2;Temp;Humidity;BMP_temperature;BMP_pressure;BME280_temperature;BME280_humidity;BME280_pressure;Samples;Min_cycle;Max_cycle;Signal;HPM_P1;HPM_P2
2021/06/20 00:01:37;;;;;;;16.45;12.10;;;25.40;97.80;;;;;;5075829;28;20056;-84
2021/06/20 00:04:02;;;;;;;14.52;11.63;;;25.40;97.80;;;;;;5092264;28;20545;-84
2021/06/20 00:06:39;;;;;;;14.18;11.50;;;25.40;97.90;;;;;;5075689;28;20143;-84
2021/06/20 00:09:07;;;;;;;14.27;11.70;;;25.40;98.10;;;;;;5093824;28;20028;-84
2021/06/20 00:11:36;;;;;;;12.48;10.60;;;25.40;98.20;;;;;;5092363;28;20028;-84
2021/06/20 00:14:03;;;;;;;13.18;11.27;;;25.30;98.30;;;;;;5092127;28;20381;-84
2021/06/20 00:16:29;;;;;;;13.57;11.23;;;25.30;98.40;;;;;;5093291;28;20028;-84
2021/06/20 00:18:54;;;;;;;12.95;10.48;;;25.30;98.50;;;;;;5093544;28;20363;-84
2021/06/20 00:21:21;;;;;;;14.10;11.23;;;25.30;98.60;;;;;;5092160;28;20028;-83
2021/06/20 00:23:47;;;;;;;17.00;9.93;;;25.30;98.60;;;;;;5092910;28;20071;-84
2021/06/20 00:26:13;;;;;;;10.90;9.57;;;25.30;98.60;;;;;;5092846;28;20035;-84
2021/06/20 00:28:39;;;;;;;11.55;9.95;;;25.30;98.70;;;;;;5092191;28;20026;-84
2021/06/20 00:31:05;;;;;;;12.07;9.80;;;25.30;98.70;;;;;;5093487;28;20103;-84
2021/06/20 00:33:30;;;;;;;11.77;10.38;;;25.30;98.70;;;;;;5093074;28;20036;-84
2021/06/20 00:35:57;;;;;;;11.70;10.00;;;25.30;98.70;;;;;;5075230;28;20484;-84
2021/06/20 00:38:23;;;;;;;10.35;9.25;;;25.30;98.70;;;;;;5091832;28;20073;-83
2021/06/20 00:40:49;;;;;;;10.95;9.05;;;25.30;98.70;;;;;;5092015;28;20499;-83
2021/06/20 00:43:15;;;;;;;12.05;9.55;;;25.30;98.60;;;;;;5074999;28;20111;-83
2021/06/20 00:45:40;;;;;;;12.00;9.90;;;25.30;98.60;;;;;;5091965;28;20095;-83
2021/06/20 00:48:07;;;;;;;12.52;10.25;;;25.30;98.60;;;;;;5091795;28;20032;-84
2021/06/20 00:50:33;;;;;;;11.50;9.73;;;25.30;98.60;;;;;;5091915;28;20071;-83
2021/06/20 00:53:00;;;;;;;14.63;10.45;;;25.30;98.60;;;;;;5091722;28;20461;-84
2021/06/20 00:55:31;;;;;;;11.98;9.63;;;25.30;98.60;;;;;;5092997;28;20056;-84
2021/06/20 00:58:03;;;;;;;11.70;9.70;;;25.30;98.60;;;;;;5093132;28;20020;-85
2021/06/20 01:00:29;;;;;;;12.02;10.38;;;25.30;98.60;;;;;;5075007;28;20105;-84
2021/06/20 01:02:55;;;;;;;11.27;9.32;;;25.30;98.60;;;;;;5091550;28;20474;-83
2021/06/20 01:05:22;;;;;;;12.27;9.85;;;25.30;98.60;;;;;;5091480;28;20074;-84
2021/06/20 01:07:53;;;;;;;10.63;9.32;;;25.30;98.60;;;;;;5074899;28;20057;-83
2021/06/20 01:10:20;;;;;;;10.77;9.55;;;25.30;98.60;;;;;;5074569;28;20032;-84
2021/06/20 01:12:48;;;;;;;12.45;10.15;;;25.30;98.60;;;;;;5091564;28;20089;-84
2021/06/20 01:15:15;;;;;;;13.68;10.30;;;25.30;98.60;;;;;;5074554;28;20024;-84
2021/06/20 01:17:41;;;;;;;11.20;9.82;;;25.30;98.60;;;;;;5091592;28;20158;-84
2021/06/20 01:20:10;;;;;;;12.57;9.95;;;25.20;98.60;;;;;;5091081;28;20095;-84
2021/06/20 01:22:38;;;;;;;12.40;9.95;;;25.20;98.50;;;;;;5091604;28;20039;-83
2021/06/20 01:25:08;;;;;;;12.38;10.25;;;25.20;98.60;;;;;;5091757;28;20025;-83
2021/06/20 01:27:59;;;;;;;11.25;10.02;;;25.20;98.50;;;;;;5091793;28;20450;-83
2021/06/20 01:30:30;;;;;;;12.25;10.10;;;25.20;98.50;;;;;;5092584;28;20025;-83
2021/06/20 01:32:58;;;;;;;13.18;10.27;;;25.20;98.60;;;;;;5092689;28;20060;-83
2021/06/20 01:35:25;;;;;;;10.10;8.90;;;25.20;98.60;;;;;;5093787;28;20020;-84
2021/06/20 01:37:51;;;;;;;12.80;9.40;;;25.20;98.60;;;;;;5078679;28;20032;-83
2021/06/20 01:40:18;;;;;;;9.95;8.85;;;25.20;98.60;;;;;;5078367;28;20085;-84
2021/06/20 01:42:45;;;;;;;11.98;9.88;;;25.20;98.60;;;;;;5095662;28;20054;-83
2021/06/20 01:45:12;;;;;;;11.38;9.55;;;25.20;98.60;;;;;;5096326;28;20055;-84
2021/06/20 01:47:38;;;;;;;10.68;9.07;;;25.30;98.60;;;;;;5078280;28;20032;-84
2021/06/20 01:50:07;;;;;;;12.20;10.15;;;25.30;98.60;;;;;;5095401;28;20052;-83
2021/06/20 01:52:33;;;;;;;10.13;9.02;;;25.30;98.60;;;;;;5094968;28;20450;-83
2021/06/20 01:54:58;;;;;;;11.35;9.30;;;25.30;98.60;;;;;;5096332;28;20085;-84
2021/06/20 01:57:33;;;;;;;11.40;9.70;;;25.30;98.60;;;;;;5096061;28;20081;-83
2021/06/20 02:00:00;;;;;;;13.40;10.95;;;25.30;98.60;;;;;;5094701;28;20034;-83
2021/06/20 02:02:27;;;;;;;12.52;10.23;;;25.30;98.60;;;;;;5077759;28;20042;-84
2021/06/20 02:04:55;;;;;;;11.25;10.02;;;25.30;98.60;;;;;;5096454;28;20035;-84
2021/06/20 02:07:25;;;;;;;11.75;10.40;;;25.30;98.60;;;;;;5095864;28;20023;-84
2021/06/20 02:09:52;;;;;;;11.73;10.00;;;25.30;98.60;;;;;;5094955;28;20028;-84
2021/06/20 02:12:21;;;;;;;11.82;9.82;;;25.30;98.60;;;;;;5077643;28;20066;-84
2021/06/20 02:14:46;;;;;;;13.82;10.82;;;25.30;98.60;;;;;;5077800;28;20055;-84
2021/06/20 02:17:27;;;;;;;12.98;10.38;;;25.30;98.50;;;;;;5095670;28;20407;-84
2021/06/20 02:19:58;;;;;;;13.05;10.18;;;25.30;98.50;;;;;;5095923;28;20048;-84
2021/06/20 02:22:28;;;;;;;12.15;10.23;;;25.30;98.50;;;;;;5094352;28;20126;-84
2021/06/20 02:24:54;;;;;;;11.93;10.07;;;25.30;98.50;;;;;;5094328;28;20052;-84
2021/06/20 02:27:20;;;;;;;11.90;9.88;;;25.30;98.50;;;;;;5093806;28;20024;-84
2021/06/20 02:29:49;;;;;;;11.18;9.82;;;25.30;98.50;;;;;;5077802;28;20377;-84
2021/06/20 02:32:15;;;;;;;10.98;9.25;;;25.30;98.50;;;;;;5095274;28;20028;-84
2021/06/20 02:34:42;;;;;;;11.68;9.70;;;25.30;98.50;;;;;;5094244;28;20571;-84
2021/06/20 02:37:08;;;;;;;11.10;8.98;;;25.20;98.50;;;;;;5077206;28;20032;-84
2021/06/20 02:39:35;;;;;;;10.80;8.65;;;25.20;98.50;;;;;;5077040;28;20140;-84
2021/06/20 02:42:00;;;;;;;9.38;7.90;;;25.20;98.40;;;;;;5095427;28;20040;-84
2021/06/20 02:44:26;;;;;;;9.00;8.07;;;25.20;98.40;;;;;;5093983;28;20028;-83
2021/06/20 02:46:53;;;;;;;9.93;8.25;;;25.20;98.40;;;;;;5094002;28;20058;-84
2021/06/20 02:49:19;;;;;;;9.07;7.72;;;25.10;98.40;;;;;;5077167;28;20028;-84
2021/06/20 02:51:45;;;;;;;9.15;7.45;;;25.10;98.40;;;;;;5077328;28;20032;-84
2021/06/20 02:54:11;;;;;;;7.75;6.68;;;25.10;98.40;;;;;;5095226;28;20450;-83
2021/06/20 02:56:38;;;;;;;8.32;7.10;;;25.10;98.40;;;;;;5094536;28;20455;-84
2021/06/20 02:59:04;;;;;;;10.80;6.68;;;25.10;98.40;;;;;;5093950;28;20028;-84
2021/06/20 03:01:29;;;;;;;7.38;5.95;;;25.10;98.40;;;;;;5094676;28;20027;-84
2021/06/20 03:03:55;;;;;;;6.65;5.72;;;25.00;98.40;;;;;;5093631;28;20466;-84
2021/06/20 03:06:21;;;;;;;7.80;6.03;;;25.00;98.40;;;;;;5059800;28;20034;-84
2021/06/20 03:08:46;;;;;;;6.82;6.13;;;25.00;98.40;;;;;;5094792;28;20036;-84
2021/06/20 03:11:12;;;;;;;6.80;5.63;;;25.00;98.40;;;;;;5076573;28;20020;-84
2021/06/20 03:13:38;;;;;;;6.93;5.22;;;25.00;98.40;;;;;;5076447;28;20063;-84
2021/06/20 03:16:04;;;;;;;6.40;5.10;;;25.00;98.30;;;;;;5076560;28;20062;-84
2021/06/20 03:18:31;;;;;;;5.07;4.50;;;25.00;98.30;;;;;;5076172;28;20111;-84
2021/06/20 03:20:56;;;;;;;5.40;4.78;;;25.00;98.30;;;;;;5094755;28;20028;-84
2021/06/20 03:23:22;;;;;;;5.10;4.60;;;25.00;98.30;;;;;;5092695;28;20052;-84
2021/06/20 03:25:48;;;;;;;5.47;4.53;;;25.00;98.30;;;;;;5093163;28;20153;-84
2021/06/20 03:28:13;;;;;;;4.93;4.20;;;25.00;98.30;;;;;;5076446;28;20028;-84
2021/06/20 03:30:39;;;;;;;5.07;4.38;;;25.00;98.30;;;;;;5093057;28;20036;-84
2021/06/20 03:33:05;;;;;;;5.90;4.82;;;25.00;98.30;;;;;;5093059;28;20082;-84
2021/06/20 03:35:30;;;;;;;4.72;4.20;;;25.00;98.30;;;;;;5075978;28;20036;-84
2021/06/20 03:37:56;;;;;;;5.03;4.35;;;25.00;98.30;;;;;;5076365;28;20055;-84
2021/06/20 03:40:22;;;;;;;5.05;4.43;;;25.00;98.20;;;;;;5092832;28;20032;-87
2021/06/20 03:42:48;;;;;;;5.13;4.20;;;25.00;98.20;;;;;;5076114;28;20059;-84
2021/06/20 03:45:14;;;;;;;4.72;4.10;;;25.00;98.20;;;;;;5076036;28;20059;-83
2021/06/20 03:47:40;;;;;;;5.57;4.20;;;25.00;98.20;;;;;;5092489;28;20035;-83
2021/06/20 03:50:07;;;;;;;5.32;4.47;;;25.00;98.10;;;;;;5092821;28;20426;-83
2021/06/20 03:52:33;;;;;;;4.75;4.25;;;25.00;98.10;;;;;;5092479;28;20032;-84
2021/06/20 03:54:59;;;;;;;3.97;3.58;;;25.00;98.20;;;;;;5075874;28;20035;-84
2021/06/20 03:57:25;;;;;;;3.97;3.55;;;25.00;98.10;;;;;;5092331;28;20038;-84
2021/06/20 03:59:51;;;;;;;4.07;3.60;;;25.00;98.10;;;;;;5075858;28;20377;-84
2021/06/20 04:02:17;;;;;;;4.93;4.03;;;25.00;98.10;;;;;;5092536;28;20032;-84
2021/06/20 04:04:44;;;;;;;4.22;3.60;;;25.00;98.10;;;;;;5075577;28;20032;-84
2021/06/20 04:07:12;;;;;;;3.85;3.33;;;25.00;98.10;;;;;;5092479;28;20024;-84
2021/06/20 04:09:42;;;;;;;4.72;3.90;;;25.00;98.10;;;;;;5070688;28;20040;-84
2021/06/20 04:12:13;;;;;;;4.47;3.55;;;25.00;98.10;;;;;;5070922;28;20043;-83
2021/06/20 04:14:40;;;;;;;4.07;3.40;;;25.00;98.10;;;;;;5038072;28;20040;-84
2021/06/20 04:17:06;;;;;;;3.53;3.15;;;25.00;98.10;;;;;;5071334;28;20032;-84
2021/06/20 04:19:32;;;;;;;3.65;3.33;;;25.00;98.10;;;;;;5053988;28;20544;-84
2021/06/20 04:21:58;;;;;;;3.75;3.25;;;25.00;98.10;;;;;;5070928;28;20040;-84
2021/06/20 04:24:24;;;;;;;4.28;3.38;;;25.00;98.10;;;;;;5037561;28;20085;-84
2021/06/20 04:26:49;;;;;;;3.30;3.00;;;25.00;98.10;;;;;;5070348;28;20048;-84
2021/06/20 04:29:15;;;;;;;3.92;3.35;;;25.00;98.00;;;;;;5037586;28;20117;-84
2021/06/20 04:31:41;;;;;;;4.75;3.40;;;25.10;98.10;;;;;;5070645;28;20525;-84
2021/06/20 04:34:07;;;;;;;3.80;3.25;;;25.10;98.00;;;;;;5037336;28;20037;-83
2021/06/20 04:36:32;;;;;;;3.92;3.30;;;25.10;98.10;;;;;;5070423;28;20119;-84
2021/06/20 04:38:58;;;;;;;3.50;3.15;;;25.10;98.10;;;;;;5037410;28;20032;-84
2021/06/20 04:41:24;;;;;;;3.40;3.03;;;25.10;98.10;;;;;;5037251;28;20040;-84
2021/06/20 04:46:33;;;;;;;3.63;3.22;;;25.10;98.10;;;;;;5074666;28;20482;-82
2021/06/20 04:49:03;;;;;;;3.03;2.72;;;25.20;98.20;;;;;;5092186;28;20027;-83
2021/06/20 04:51:30;;;;;;;3.85;3.38;;;25.20;98.20;;;;;;5093236;28;20031;-82
2021/06/20 04:53:56;;;;;;;3.33;2.75;;;25.20;98.20;;;;;;5093075;28;20035;-83
2021/06/20 04:56:22;;;;;;;3.08;2.78;;;25.20;98.20;;;;;;5093079;28;20028;-82
2021/06/20 04:58:48;;;;;;;3.35;3.05;;;25.20;98.20;;;;;;5091551;28;20028;-82
2021/06/20 05:01:13;;;;;;;3.42;3.10;;;25.20;98.20;;;;;;5091689;28;20028;-82
2021/06/20 05:03:39;;;;;;;3.92;3.30;;;25.20;98.20;;;;;;5074681;28;20563;-82
2021/06/20 05:06:05;;;;;;;3.33;3.03;;;25.20;98.20;;;;;;5058145;28;20032;-82
2021/06/20 05:08:30;;;;;;;3.70;3.10;;;25.20;98.20;;;;;;5075109;28;20024;-82
2021/06/20 05:10:56;;;;;;;3.28;2.97;;;25.30;98.20;;;;;;5077397;28;20123;-82
2021/06/20 05:13:22;;;;;;;3.15;2.80;;;25.30;98.20;;;;;;5095799;28;20064;-83
2021/06/20 05:15:48;;;;;;;3.70;3.22;;;25.30;98.20;;;;;;5095638;28;20024;-83
2021/06/20 05:18:14;;;;;;;3.40;3.10;;;25.30;98.20;;;;;;5095672;28;20078;-83
2021/06/20 05:20:40;;;;;;;2.70;2.47;;;25.30;98.20;;;;;;5095130;28;20063;-83
2021/06/20 05:23:09;;;;;;;4.10;3.05;;;25.30;98.20;;;;;;5078598;28;20052;-83
2021/06/20 05:25:35;;;;;;;3.10;2.80;;;25.30;98.20;;;;;;5095661;28;20024;-83
2021/06/20 05:28:01;;;;;;;3.58;3.20;;;25.30;98.30;;;;;;5095504;28;20591;-83
2021/06/20 05:30:27;;;;;;;3.55;3.17;;;25.30;98.30;;;;;;5095294;28;20088;-83
2021/06/20 05:32:54;;;;;;;3.08;2.80;;;25.30;98.30;;;;;;5096476;28;20055;-83
2021/06/20 05:35:20;;;;;;;3.33;2.88;;;25.30;98.30;;;;;;5079134;28;20031;-83
2021/06/20 05:37:46;;;;;;;3.38;3.08;;;25.30;98.30;;;;;;5095349;28;20033;-83
2021/06/20 05:40:13;;;;;;;3.25;2.95;;;25.30;98.30;;;;;;5095211;28;20032;-82
2021/06/20 05:42:39;;;;;;;3.70;2.88;;;25.30;98.30;;;;;;5094933;28;20028;-84
2021/06/20 05:45:05;;;;;;;3.30;3.00;;;25.30;98.30;;;;;;5095236;28;20363;-83
2021/06/20 05:47:31;;;;;;;3.20;2.90;;;25.30;98.20;;;;;;5078313;28;20121;-83
2021/06/20 05:49:56;;;;;;;3.30;3.00;;;25.30;98.20;;;;;;5094814;28;20547;-82
2021/06/20 05:52:23;;;;;;;3.47;3.05;;;25.40;98.30;;;;;;5061814;28;20040;-83
2021/06/20 05:54:51;;;;;;;3.53;3.05;;;25.30;98.20;;;;;;5077939;28;20081;-83
2021/06/20 05:57:21;;;;;;;3.45;3.15;;;25.30;98.20;;;;;;5095245;28;20180;-83
2021/06/20 05:59:47;;;;;;;3.33;2.90;;;25.40;98.30;;;;;;5094448;28;20058;-83
2021/06/20 06:02:13;;;;;;;3.00;2.70;;;25.40;98.30;;;;;;5095063;28;20052;-83
2021/06/20 06:04:40;;;;;;;3.17;2.88;;;25.40;98.20;;;;;;5077692;28;20058;-83
2021/06/20 06:07:06;;;;;;;3.05;2.75;;;25.30;98.20;;;;;;5094793;28;20059;-83
2021/06/20 06:09:32;;;;;;;3.17;2.65;;;25.40;98.20;;;;;;5094870;28;20032;-82
2021/06/20 06:11:57;;;;;;;3.53;3.15;;;25.40;98.30;;;;;;5060843;28;20440;-83
2021/06/20 06:14:23;;;;;;;3.42;3.13;;;25.40;98.30;;;;;;5061131;28;20445;-83
2021/06/20 06:16:50;;;;;;;3.13;2.83;;;25.40;98.20;;;;;;5077536;28;20032;-83
2021/06/20 06:19:17;;;;;;;2.58;2.38;;;25.40;98.20;;;;;;5077862;28;20024;-83
2021/06/20 06:21:43;;;;;;;2.92;2.60;;;25.40;98.20;;;;;;5095153;28;20028;-84
2021/06/20 06:24:09;;;;;;;3.85;3.38;;;25.50;98.20;;;;;;5076754;28;20059;-83
2021/06/20 06:26:35;;;;;;;3.17;2.88;;;25.50;98.20;;;;;;5094601;28;20039;-83
2021/06/20 06:29:01;;;;;;;2.90;2.60;;;25.50;98.20;;;;;;5093375;28;20028;-83
2021/06/20 06:31:26;;;;;;;2.90;2.45;;;25.50;98.20;;;;;;5093169;28;20111;-82
2021/06/20 06:33:52;;;;;;;3.08;2.53;;;25.50;98.20;;;;;;5076034;28;20060;-84
2021/06/20 06:36:19;;;;;;;3.00;2.70;;;25.50;98.20;;;;;;5094435;28;20107;-82
2021/06/20 06:38:45;;;;;;;3.08;2.78;;;25.50;98.20;;;;;;5093917;28;20537;-83
2021/06/20 06:41:10;;;;;;;2.38;2.17;;;25.50;98.10;;;;;;5093280;28;20103;-83
2021/06/20 06:43:36;;;;;;;2.72;2.50;;;25.50;98.10;;;;;;5093085;28;20059;-83
2021/06/20 06:46:02;;;;;;;3.05;2.75;;;25.50;98.10;;;;;;5075835;28;20119;-83
2021/06/20 06:48:28;;;;;;;2.58;2.38;;;25.50;98.00;;;;;;5076251;28;20466;-83
2021/06/20 06:50:53;;;;;;;2.65;2.40;;;25.50;98.00;;;;;;5092827;28;20481;-83
2021/06/20 06:53:19;;;;;;;2.28;2.08;;;25.60;98.00;;;;;;5092923;28;20036;-83
2021/06/20 06:55:44;;;;;;;2.40;2.20;;;25.60;98.00;;;;;;5075780;28;20127;-83
2021/06/20 06:58:10;;;;;;;2.78;2.47;;;25.60;98.00;;;;;;5092990;28;20032;-83
2021/06/20 07:00:36;;;;;;;2.13;1.90;;;25.60;98.00;;;;;;5076154;28;20458;-83
2021/06/20 07:03:02;;;;;;;2.88;2.58;;;25.60;98.10;;;;;;5075645;28;20551;-83
2021/06/20 07:05:28;;;;;;;4.20;2.40;;;25.60;98.10;;;;;;5092584;28;20115;-83
2021/06/20 07:07:54;;;;;;;3.08;2.45;;;25.60;98.20;;;;;;5092285;28;20382;-83
2021/06/20 07:10:20;;;;;;;4.03;2.47;;;25.60;98.30;;;;;;5093884;28;20047;-83
2021/06/20 07:12:46;;;;;;;2.33;2.00;;;25.60;98.40;;;;;;5075349;28;20036;-83
2021/06/20 07:15:12;;;;;;;2.30;2.10;;;25.60;98.50;;;;;;5059053;28;20080;-83
2021/06/20 07:17:38;;;;;;;2.58;2.10;;;25.60;98.60;;;;;;5093738;28;20024;-83
2021/06/20 07:20:09;;;;;;;2.15;1.95;;;25.60;98.60;;;;;;5093684;28;20117;-84
2021/06/20 07:22:35;;;;;;;2.20;1.77;;;25.60;98.70;;;;;;5089393;28;88010;-83
2021/06/20 07:25:01;;;;;;;3.53;2.00;;;25.60;98.70;;;;;;5076127;28;20078;-83
2021/06/20 07:27:27;;;;;;;1.70;1.60;;;25.60;98.70;;;;;;5059851;28;20028;-84
2021/06/20 07:29:52;;;;;;;2.30;1.98;;;25.60;98.70;;;;;;5094186;28;20028;-84
2021/06/20 07:32:18;;;;;;;2.00;1.75;;;25.60;98.70;;;;;;5058949;28;20036;-83
2021/06/20 07:34:44;;;;;;;2.60;1.75;;;25.60;98.70;;;;;;5093160;28;20067;-84
2021/06/20 07:37:09;;;;;;;2.17;1.70;;;25.60;98.70;;;;;;5094551;28;20036;-83
2021/06/20 07:39:35;;;;;;;1.75;1.60;;;25.60;98.70;;;;;;5076193;28;20381;-83
2021/06/20 07:42:01;;;;;;;1.58;1.23;;;25.60;98.70;;;;;;5092765;28;20050;-83
2021/06/20 07:44:27;;;;;;;1.30;1.20;;;25.60;98.90;;;;;;5092848;28;20024;-83
2021/06/20 07:46:53;;;;;;;1.52;1.42;;;25.60;98.70;;;;;;5075840;28;20378;-84
2021/06/20 07:49:19;;;;;;;2.22;1.48;;;25.60;98.70;;;;;;5092724;28;20439;-84
2021/06/20 07:51:44;;;;;;;1.73;1.33;;;25.60;98.70;;;;;;5092855;28;20362;-84
2021/06/20 07:54:10;;;;;;;2.00;1.15;;;25.60;98.60;;;;;;5092609;28;20035;-83
2021/06/20 07:56:36;;;;;;;2.55;1.27;;;25.60;98.60;;;;;;5091118;28;20020;-84
2021/06/20 07:59:01;;;;;;;2.28;1.52;;;25.60;98.60;;;;;;5075631;28;20393;-83
2021/06/20 08:01:28;;;;;;;2.45;1.42;;;25.60;98.60;;;;;;5075722;28;20028;-83
2021/06/20 08:03:54;;;;;;;1.30;1.17;;;25.60;98.70;;;;;;5075548;28;20034;-84
2021/06/20 08:06:20;;;;;;;1.50;1.30;;;25.60;98.70;;;;;;5059037;28;20123;-83
2021/06/20 08:08:46;;;;;;;2.00;1.13;;;25.60;98.70;;;;;;5059196;28;20024;-83
2021/06/20 08:11:12;;;;;;;2.08;1.40;;;25.60;98.70;;;;;;5093108;28;20101;-83
2021/06/20 08:13:38;;;;;;;1.48;1.00;;;25.60;98.70;;;;;;5075568;28;20420;-84
2021/06/20 08:16:04;;;;;;;1.70;1.40;;;25.60;98.70;;;;;;5075400;28;20032;-83
2021/06/20 08:18:29;;;;;;;1.40;1.20;;;25.60;98.70;;;;;;5075964;28;20059;-84
2021/06/20 08:20:55;;;;;;;1.30;1.20;;;25.60;98.70;;;;;;5075092;28;20385;-85
2021/06/20 08:23:22;;;;;;;1.60;1.27;;;25.60;98.70;;;;;;5075177;28;20398;-83
2021/06/20 08:25:48;;;;;;;1.65;1.20;;;25.60;98.60;;;;;;5075223;28;20515;-83
2021/06/20 08:28:13;;;;;;;1.70;1.42;;;25.60;98.60;;;;;;5058427;28;20028;-83
2021/06/20 08:30:39;;;;;;;1.50;1.30;;;25.60;98.60;;;;;;5074991;28;20020;-84
2021/06/20 08:33:05;;;;;;;1.90;1.17;;;25.60;98.60;;;;;;5041534;28;20097;-83
2021/06/20 08:35:30;;;;;;;1.75;1.27;;;25.60;98.60;;;;;;5058540;28;20102;-84
2021/06/20 08:37:56;;;;;;;1.65;1.17;;;25.60;98.50;;;;;;5092895;28;20028;-83
2021/06/20 08:40:22;;;;;;;1.75;1.30;;;25.60;98.50;;;;;;5058492;28;20039;-83
2021/06/20 08:42:48;;;;;;;1.77;1.20;;;25.60;98.50;;;;;;5093035;28;20032;-83
2021/06/20 08:45:15;;;;;;;1.60;1.20;;;25.60;98.40;;;;;;5074669;28;20119;-83
2021/06/20 08:47:41;;;;;;;1.60;1.05;;;25.60;98.40;;;;;;5093233;28;20028;-83
2021/06/20 08:50:07;;;;;;;1.33;1.10;;;25.60;98.40;;;;;;5074688;28;20055;-83
2021/06/20 08:52:33;;;;;;;1.17;1.08;;;25.70;98.40;;;;;;5041578;28;20089;-84
2021/06/20 08:55:02;;;;;;;1.60;1.15;;;25.70;98.40;;;;;;5041455;28;20032;-83
2021/06/20 08:57:42;;;;;;;1.08;0.98;;;25.70;98.40;;;;;;5058969;28;20123;-84
2021/06/20 09:00:11;;;;;;;1.08;0.93;;;25.70;98.30;;;;;;5092858;28;20055;-83
2021/06/20 09:02:37;;;;;;;1.10;0.90;;;25.70;98.30;;;;;;5058602;28;20115;-83
2021/06/20 09:05:06;;;;;;;2.13;0.98;;;25.70;98.30;;;;;;5074934;28;20115;-84
2021/06/20 09:07:39;;;;;;;1.08;0.98;;;25.70;98.30;;;;;;5092978;28;20046;-84
2021/06/20 09:10:18;;;;;;;1.00;0.90;;;25.60;98.20;;;;;;5074706;28;20458;-84
2021/06/20 09:12:54;;;;;;;1.73;1.00;;;25.70;98.20;;;;;;5092742;28;20111;-84
2021/06/20 09:15:25;;;;;;;1.33;1.05;;;25.70;98.30;;;;;;5092366;28;20078;-84
2021/06/20 09:18:00;;;;;;;1.00;0.90;;;25.70;98.20;;;;;;5093046;28;20027;-84
2021/06/20 09:20:34;;;;;;;1.65;0.98;;;25.70;98.20;;;;;;5074619;28;20082;-83
2021/06/20 09:23:01;;;;;;;1.52;0.93;;;25.70;98.20;;;;;;5092486;28;20481;-84
2021/06/20 09:25:28;;;;;;;0.82;0.82;;;25.70;98.20;;;;;;5092608;28;20029;-84
2021/06/20 09:27:59;;;;;;;0.88;0.73;;;25.70;98.20;;;;;;5074610;28;20134;-84
2021/06/20 09:30:27;;;;;;;0.85;0.80;;;25.70;98.20;;;;;;5074586;28;20029;-84
2021/06/20 09:33:02;;;;;;;1.20;0.90;;;25.70;98.20;;;;;;5074408;28;20032;-84
2021/06/20 09:35:44;;;;;;;1.15;1.00;;;25.70;98.20;;;;;;5092438;28;20085;-84
2021/06/20 09:38:25;;;;;;;1.00;0.80;;;25.70;98.20;;;;;;5073170;28;20032;-84
2021/06/20 09:41:00;;;;;;;1.30;1.00;;;25.70;98.20;;;;;;5074731;28;20032;-84
2021/06/20 09:43:25;;;;;;;1.00;0.90;;;25.70;98.20;;;;;;5093046;28;20024;-84
2021/06/20 09:45:52;;;;;;;0.93;0.82;;;25.70;98.20;;;;;;5057550;28;20109;-83
2021/06/20 09:48:22;;;;;;;1.52;0.80;;;25.70;98.20;;;;;;5057563;28;20393;-83
2021/06/20 09:50:48;;;;;;;1.23;1.10;;;25.70;98.20;;;;;;5057728;28;20586;-83
2021/06/20 09:53:13;;;;;;;1.48;0.98;;;25.70;98.20;;;;;;5057449;28;20130;-83
2021/06/20 09:55:39;;;;;;;1.10;1.00;;;25.70;98.30;;;;;;5074916;28;20029;-83
2021/06/20 09:58:05;;;;;;;0.93;0.80;;;25.70;98.30;;;;;;5044440;28;20025;-83
2021/06/20 10:00:42;;;;;;;1.20;1.00;;;25.70;98.30;;;;;;5061299;28;20092;-83
2021/06/20 10:03:21;;;;;;;1.48;0.95;;;25.70;98.30;;;;;;5077363;28;20028;-84
2021/06/20 10:05:49;;;;;;;1.42;1.23;;;25.70;98.30;;;;;;5078019;28;20031;-83
2021/06/20 10:08:16;;;;;;;1.10;1.00;;;25.70;98.30;;;;;;5077624;28;20032;-84
2021/06/20 10:10:41;;;;;;;1.00;0.85;;;25.70;98.30;;;;;;5044593;28;20028;-83
2021/06/20 10:13:09;;;;;;;2.08;1.10;;;25.70;98.30;;;;;;5095792;28;20526;-84
2021/06/20 10:15:35;;;;;;;1.95;1.00;;;25.70;98.30;;;;;;5061259;28;20025;-84
2021/06/20 10:18:04;;;;;;;1.38;1.27;;;25.70;98.30;;;;;;5061070;28;20058;-84
2021/06/20 10:20:34;;;;;;;1.92;1.27;;;25.70;98.30;;;;;;5061142;28;20241;-85
2021/06/20 10:23:01;;;;;;;1.55;1.20;;;25.70;98.30;;;;;;5095629;28;20048;-83
2021/06/20 10:25:40;;;;;;;1.10;1.00;;;25.70;98.30;;;;;;5060823;28;20031;-82
2021/06/20 10:28:14;;;;;;;1.15;1.05;;;25.70;98.30;;;;;;5061576;28;20028;-84
2021/06/20 10:30:42;;;;;;;2.38;0.95;;;25.80;98.30;;;;;;5077473;28;20390;-84
2021/06/20 10:33:11;;;;;;;1.42;1.00;;;25.70;98.20;;;;;;5094341;28;20040;-85
2021/06/20 10:35:37;;;;;;;3.08;1.10;;;25.80;98.20;;;;;;5077230;28;20170;-84
2021/06/20 10:38:04;;;;;;;2.00;0.80;;;25.80;98.20;;;;;;5095465;28;20028;-84
2021/06/20 10:40:43;;;;;;;0.93;0.90;;;25.80;98.10;;;;;;5077093;28;20043;-83
2021/06/20 10:43:20;;;;;;;1.98;1.20;;;25.80;98.10;;;;;;5077060;28;20497;-84
2021/06/20 10:45:46;;;;;;;1.10;1.00;;;25.80;98.10;;;;;;5077514;28;20384;-83
2021/06/20 10:48:12;;;;;;;0.82;0.82;;;25.80;98.10;;;;;;5060319;28;20029;-83
2021/06/20 10:50:40;;;;;;;0.88;0.82;;;25.80;98.10;;;;;;5095275;28;20031;-84
2021/06/20 10:53:06;;;;;;;0.70;0.70;;;25.80;98.10;;;;;;5076888;28;20115;-84
2021/06/20 10:55:59;;;;;;;1.13;1.02;;;25.80;98.00;;;;;;5095204;28;20418;-84
2021/06/20 10:58:29;;;;;;;0.75;0.70;;;25.80;98.00;;;;;;5055637;28;20077;-84
2021/06/20 11:01:15;;;;;;;0.60;0.55;;;25.80;98.00;;;;;;5094970;28;20043;-84
2021/06/20 11:03:46;;;;;;;0.80;0.80;;;25.90;98.00;;;;;;5076958;28;20060;-83
2021/06/20 11:06:13;;;;;;;0.70;0.70;;;25.80;97.90;;;;;;5076829;28;20059;-84
2021/06/20 11:09:07;;;;;;;1.05;0.80;;;25.90;98.00;;;;;;5093755;28;20035;-83
2021/06/20 11:11:35;;;;;;;1.30;0.77;;;25.90;97.90;;;;;;5076020;28;20079;-83
2021/06/20 11:14:07;;;;;;;0.80;0.80;;;25.80;97.90;;;;;;5094998;28;20410;-83
2021/06/20 11:17:03;;;;;;;0.95;0.80;;;25.90;97.90;;;;;;5076239;28;20030;-84
2021/06/20 11:19:30;;;;;;;0.80;0.80;;;25.90;97.90;;;;;;5075452;28;20119;-83
2021/06/20 11:21:57;;;;;;;1.23;0.85;;;25.90;97.90;;;;;;5059779;28;20028;-83
2021/06/20 11:24:30;;;;;;;1.20;0.80;;;25.80;97.80;;;;;;5094300;28;20474;-84
2021/06/20 11:26:59;;;;;;;1.23;0.60;;;25.80;97.80;;;;;;5076355;28;20024;-83
2021/06/20 11:29:57;;;;;;;0.80;0.80;;;25.90;97.90;;;;;;5075902;28;20024;-84
2021/06/20 11:32:31;;;;;;;0.70;0.70;;;25.90;97.80;;;;;;5075804;28;20047;-84
2021/06/20 11:34:59;;;;;;;0.75;0.70;;;25.90;97.80;;;;;;5077328;28;20111;-84
2021/06/20 11:37:32;;;;;;;0.60;0.60;;;25.90;97.80;;;;;;5075795;28;20428;-84
2021/06/20 11:39:59;;;;;;;0.63;0.60;;;25.90;97.80;;;;;;5076297;28;20043;-83
2021/06/20 11:42:31;;;;;;;0.95;0.70;;;25.90;97.80;;;;;;5075858;28;20067;-83
2021/06/20 11:45:03;;;;;;;0.73;0.70;;;25.90;97.70;;;;;;5075468;28;20028;-84
2021/06/20 11:47:41;;;;;;;0.85;0.80;;;25.90;97.70;;;;;;5075682;28;20029;-84
2021/06/20 11:50:25;;;;;;;0.95;0.80;;;25.90;97.60;;;;;;5075964;28;20122;-83
2021/06/20 11:53:01;;;;;;;0.80;0.80;;;25.90;97.60;;;;;;5075867;28;20036;-83
2021/06/20 11:55:29;;;;;;;1.05;0.85;;;25.90;97.60;;;;;;5075609;28;20047;-84
2021/06/20 11:57:59;;;;;;;1.58;0.73;;;25.90;97.60;;;;;;5091993;28;20067;-84
2021/06/20 12:00:26;;;;;;;1.08;1.00;;;25.90;97.60;;;;;;5092136;28;20068;-84
2021/06/20 12:03:11;;;;;;;1.20;1.10;;;25.90;97.60;;;;;;5075696;28;20035;-84
2021/06/20 12:05:48;;;;;;;0.93;0.88;;;25.90;97.50;;;;;;5092367;28;20488;-84
2021/06/20 12:08:15;;;;;;;1.13;1.02;;;25.90;97.50;;;;;;5092568;28;20063;-84
2021/06/20 12:10:43;;;;;;;1.20;1.10;;;25.90;97.50;;;;;;5091984;28;20391;-84
2021/06/20 12:13:09;;;;;;;1.10;1.00;;;26.00;97.50;;;;;;5092909;28;20489;-84
2021/06/20 12:15:37;;;;;;;1.10;0.98;;;26.00;97.50;;;;;;5093197;28;20031;-84
2021/06/20 12:18:08;;;;;;;1.10;1.00;;;26.00;97.50;;;;;;5093561;28;20024;-83
2021/06/20 12:20:38;;;;;;;1.42;1.17;;;26.00;97.50;;;;;;5091610;28;20462;-84
2021/06/20 12:23:08;;;;;;;0.88;0.80;;;26.00;97.50;;;;;;5091779;28;20083;-84
2021/06/20 12:25:45;;;;;;;1.20;1.00;;;26.00;97.50;;;;;;5092030;28;20028;-84
2021/06/20 12:28:12;;;;;;;0.95;0.88;;;26.00;97.60;;;;;;5092335;28;20044;-84
2021/06/20 12:30:40;;;;;;;0.80;0.80;;;26.00;97.50;;;;;;5091634;28;20020;-83
2021/06/20 12:33:12;;;;;;;1.05;0.98;;;26.00;97.50;;;;;;5075435;28;20036;-83
2021/06/20 12:35:38;;;;;;;1.13;1.02;;;26.00;97.40;;;;;;5093385;28;20024;-84
2021/06/20 12:38:17;;;;;;;0.88;0.85;;;26.00;97.40;;;;;;5092052;28;20028;-84
2021/06/20 12:40:44;;;;;;;0.80;0.80;;;26.10;97.40;;;;;;5091987;28;20032;-84
2021/06/20 12:43:18;;;;;;;1.23;1.10;;;26.00;97.40;;;;;;5075406;28;20119;-83
2021/06/20 12:45:45;;;;;;;1.00;0.90;;;26.00;97.30;;;;;;5093141;28;20024;-84
2021/06/20 12:48:19;;;;;;;1.20;0.82;;;26.00;97.30;;;;;;5058288;28;20061;-85
2021/06/20 12:50:49;;;;;;;;;;;26.00;97.30;;;;;;5090974;28;20031;-84